Time;durP1;ratioP1;P1;durP2;ratioP2;P2;SDS_P1;SDS_P2;PMS_P1;PMS_P2;Temp;Humidity;BMP_temperature;BMP_pressure;BME280_temperature;BME280_humidity;BME280_pressure;Samples;Min_cycle;Max_cycle;Signal;HPM_P1;HPM_P2
2022/05/15 00:01:50;;;;;;;;;11.67;9.00;;;;;19.34;43.44;101374.41;5098321;27;45285;-44
2022/05/15 00:04:16;;;;;;;;;11.00;9.00;;;;;19.36;42.16;101372.38;5098088;27;45361;-42
2022/05/15 00:06:41;;;;;;;;;13.00;9.00;;;;;19.30;42.75;101359.63;5098051;27;45299;-46
2022/05/15 00:09:06;;;;;;;;;10.67;8.67;;;;;19.29;42.49;101353.41;5097957;27;45196;-48
2022/05/15 00:11:32;;;;;;;;;10.33;8.00;;;;;19.30;43.46;101359.63;5097000;27;45414;-42
2022/05/15 00:13:58;;;;;;;;;9.00;9.00;;;;;19.26;43.27;101361.06;5098135;27;45252;-45
2022/05/15 00:16:24;;;;;;;;;7.00;7.00;;;;;19.19;44.16;101356.41;5097800;27;46048;-43
2022/05/15 00:18:50;;;;;;;;;14.00;9.00;;;;;19.16;44.20;101351.38;5097866;27;45360;-43
2022/05/15 00:21:16;;;;;;;;;11.00;9.67;;;;;19.08;44.17;101338.00;5097649;27;45442;-42
2022/05/15 00:23:43;;;;;;;;;9.00;9.00;;;;;19.17;43.60;101349.50;5097906;27;45565;-42
2022/05/15 00:26:09;;;;;;;;;16.33;10.00;;;;;19.16;42.50;101339.75;5096839;27;45457;-42
2022/05/15 00:28:34;;;;;;;;;8.33;8.00;;;;;19.15;42.84;101349.72;5097669;27;45434;-42
2022/05/15 00:31:00;;;;;;;;;9.00;8.00;;;;;19.02;44.03;101325.28;5097849;27;45281;-44
2022/05/15 00:33:26;;;;;;;;;10.67;8.67;;;;;19.12;44.03;101333.91;5098078;27;45296;-43
2022/05/15 00:35:53;;;;;;;;;3.33;3.00;;;;;19.13;43.23;101343.69;5097598;27;46107;-42
2022/05/15 00:38:18;;;;;;;;;7.00;5.00;;;;;19.13;43.74;101345.53;5097598;27;45534;-42
2022/05/15 00:40:46;;;;;;;;;6.00;6.00;;;;;19.11;43.17;101345.72;5097713;27;45315;-43
2022/05/15 00:43:32;;;;;;;;;8.00;8.00;;;;;19.08;43.88;101345.25;5097707;27;45375;-43
2022/05/15 00:45:58;;;;;;;;;7.00;7.00;;;;;19.06;44.00;101344.63;5097415;27;45442;-42
2022/05/15 00:48:23;;;;;;;;;10.00;7.00;;;;;19.03;44.01;101345.81;5096313;27;45293;-42
2022/05/15 00:50:49;;;;;;;;;9.00;7.67;;;;;18.99;44.42;101333.72;5097500;27;45371;-42
2022/05/15 00:53:14;;;;;;;;;6.67;5.33;;;;;18.97;44.48;101334.97;5097826;27;45289;-41
2022/05/15 00:55:44;;;;;;;;;9.00;7.33;;;;;18.94;44.43;101338.84;5097388;27;45325;-41
2022/05/15 00:58:15;;;;;;;;;8.33;6.00;;;;;18.94;44.47;101328.06;5097383;27;45321;-41
2022/05/15 01:00:41;;;;;;;;;7.33;7.00;;;;;18.93;44.68;101324.53;5097530;27;45360;-42
2022/05/15 01:03:12;;;;;;;;;7.67;5.33;;;;;18.95;43.27;101318.97;5097396;27;45395;-42
2022/05/15 01:05:42;;;;;;;;;10.33;7.00;;;;;18.95;43.73;101319.78;5097182;27;45448;-47
2022/05/15 01:08:08;;;;;;;;;6.00;5.00;;;;;18.94;44.12;101318.13;5097474;27;45304;-46
2022/05/15 01:10:37;;;;;;;;;4.00;4.00;;;;;18.91;44.37;101314.97;5097822;27;45317;-43
2022/05/15 01:13:03;;;;;;;;;8.67;6.33;;;;;18.90;43.97;101316.00;5097654;27;45387;-44
2022/05/15 01:15:29;;;;;;;;;6.00;6.00;;;;;18.91;44.71;101312.25;5097026;27;46247;-42
2022/05/15 01:17:54;;;;;;;;;9.00;7.00;;;;;18.86;44.23;101302.03;5097107;27;45398;-47
2022/05/15 01:20:23;;;;;;;;;6.67;5.67;;;;;18.91;44.72;101304.19;5097148;27;45193;-44
2022/05/15 01:22:49;;;;;;;;;10.33;9.00;;;;;18.94;44.29;101306.50;5100348;27;45344;-45
2022/05/15 01:25:18;;;;;;;;;6.00;6.00;;;;;18.92;43.37;101301.31;5100796;27;45975;-46
2022/05/15 01:27:55;;;;;;;;;6.00;6.00;;;;;18.87;44.12;101306.41;5099698;27;45353;-46
2022/05/15 01:30:22;;;;;;;;;7.00;7.00;;;;;18.87;44.86;101308.28;5100853;27;45412;-42
2022/05/15 01:32:47;;;;;;;;;8.00;7.00;;;;;18.86;44.60;101306.59;5100528;27;45432;-43
2022/05/15 01:35:12;;;;;;;;;7.33;6.33;;;;;18.86;44.68;101312.84;5100119;27;45418;-41
2022/05/15 01:37:38;;;;;;;;;8.00;7.67;;;;;18.82;44.60;101299.91;5100403;27;45349;-45
2022/05/15 01:40:05;;;;;;;;;6.33;5.00;;;;;18.83;44.84;101302.41;5100704;27;45347;-43
2022/05/15 01:42:30;;;;;;;;;10.67;8.00;;;;;18.83;44.72;101293.50;5100584;27;45242;-43
2022/05/15 01:44:56;;;;;;;;;7.67;7.00;;;;;18.80;44.73;101285.81;5100186;27;46117;-46
2022/05/15 01:47:22;;;;;;;;;5.33;5.33;;;;;18.79;44.82;101286.81;5100439;27;45469;-42
2022/05/15 01:49:47;;;;;;;;;4.67;4.67;;;;;18.79;44.86;101279.56;5100746;27;45747;-43
2022/05/15 01:52:12;;;;;;;;;6.33;6.33;;;;;18.77;44.81;101278.91;5100778;27;45504;-44
2022/05/15 01:54:39;;;;;;;;;7.33;5.67;;;;;18.79;44.82;101284.09;5100222;27;46997;-46
2022/05/15 01:57:05;;;;;;;;;8.00;8.00;;;;;18.72;45.23;101281.34;5100066;27;45413;-43
2022/05/15 01:59:30;;;;;;;;;6.00;6.00;;;;;18.76;44.99;101284.50;5100498;27;45442;-42
2022/05/15 02:01:55;;;;;;;;;8.00;6.67;;;;;18.76;45.10;101281.81;5100305;27;45465;-41
2022/05/15 02:04:21;;;;;;;;;6.00;4.67;;;;;18.77;45.22;101280.78;5099990;27;45365;-42
2022/05/15 02:06:46;;;;;;;;;6.67;6.00;;;;;18.78;44.87;101282.44;5100153;27;45339;-48
2022/05/15 02:09:12;;;;;;;;;8.00;7.00;;;;;18.78;45.11;101268.97;5100270;27;45237;-44
2022/05/15 02:11:38;;;;;;;;;6.00;5.33;;;;;18.65;45.03;101246.19;5100522;27;45236;-43
2022/05/15 02:14:04;;;;;;;;;6.33;6.33;;;;;18.75;45.29;101269.34;5099901;27;45398;-42
2022/05/15 02:16:31;;;;;;;;;7.00;6.00;;;;;18.75;44.68;101255.84;5100150;27;45478;-47
2022/05/15 02:18:56;;;;;;;;;5.33;5.00;;;;;18.75;45.03;101245.06;5100038;27;45362;-46
2022/05/15 02:21:22;;;;;;;;;4.67;4.00;;;;;18.73;44.58;101245.28;5100116;27;45388;-44
2022/05/15 02:23:47;;;;;;;;;6.67;6.67;;;;;18.64;45.02;101230.22;5099812;27;45962;-42
2022/05/15 02:26:13;;;;;;;;;7.33;4.67;;;;;18.72;44.96;101248.19;5099975;27;45437;-43
2022/05/15 02:28:39;;;;;;;;;6.33;6.33;;;;;18.70;44.58;101240.25;5100276;27;45329;-42
2022/05/15 02:31:05;;;;;;;;;4.00;4.00;;;;;18.70;44.59;101241.09;5081611;27;45702;-43
2022/05/15 02:33:31;;;;;;;;;4.67;4.00;;;;;18.69;45.07;101238.56;5098939;27;46358;-43
2022/05/15 02:35:58;;;;;;;;;3.00;3.00;;;;;18.65;45.17;101238.09;5099468;27;45395;-43
2022/05/15 02:38:24;;;;;;;;;7.00;5.67;;;;;18.70;45.03;101242.94;5099716;27;45355;-42
2022/05/15 02:40:50;;;;;;;;;4.33;4.33;;;;;18.68;44.22;101243.13;5064641;27;45382;-44
2022/05/15 02:43:15;;;;;;;;;5.67;4.00;;;;;18.67;44.93;101238.75;5099232;27;45379;-43
2022/05/15 02:45:41;;;;;;;;;5.00;4.00;;;;;18.65;45.06;101245.34;5099475;27;45357;-43
2022/05/15 02:51:03;;;;;;;;;4.00;4.00;;;;;18.65;44.76;101242.66;5099530;27;45335;-43
2022/05/15 02:51:04;;;;;;;;;5.00;5.00;;;;;18.63;44.99;101253.63;5099674;27;45478;-42
2022/05/15 02:53:41;;;;;;;;;5.67;5.00;;;;;18.59;44.68;101241.56;5099321;27;45436;-44
2022/05/15 02:56:11;;;;;;;;;4.00;4.00;;;;;18.47;44.98;101237.66;5099426;27;45406;-42
2022/05/15 02:58:37;;;;;;;;;3.33;3.33;;;;;18.56;45.18;101257.25;5099240;27;45394;-44
2022/05/15 03:01:03;;;;;;;;;5.00;4.67;;;;;18.57;45.04;101253.53;5099759;27;45337;-44
2022/05/15 03:03:29;;;;;;;;;4.67;4.33;;;;;18.53;45.40;101244.97;5098825;27;47300;-42
2022/05/15 03:05:54;;;;;;;;;6.67;5.00;;;;;18.54;44.86;101243.13;5098977;27;45371;-44
2022/05/15 03:08:20;;;;;;;;;5.00;5.00;;;;;18.52;44.64;101240.63;5099014;27;45473;-44
2022/05/15 03:10:45;;;;;;;;;3.00;3.00;;;;;18.57;44.49;101240.06;5099188;27;45664;-43
2022/05/15 03:13:11;;;;;;;;;3.33;2.00;;;;;18.55;44.82;101242.13;5099239;27;46309;-44
2022/05/15 03:15:37;;;;;;;;;4.00;4.00;;;;;18.55;44.74;101248.34;5099164;27;45408;-44
2022/05/15 03:18:03;;;;;;;;;5.00;3.00;;;;;18.54;44.93;101246.69;5099470;27;45339;-44
2022/05/15 03:20:28;;;;;;;;;9.00;5.67;;;;;18.51;44.63;101233.56;5099348;27;45151;-44
2022/05/15 03:22:58;;;;;;;;;3.33;3.33;;;;;18.50;44.24;101229.22;5098645;27;45883;-44
2022/05/15 03:25:26;;;;;;;;;3.00;3.00;;;;;18.50;44.90;101237.28;5098931;27;45312;-44
2022/05/15 03:27:52;;;;;;;;;4.67;4.00;;;;;18.51;44.81;101228.19;5098907;27;45375;-42
2022/05/15 03:30:18;;;;;;;;;3.00;3.00;;;;;18.52;44.67;101229.00;5099060;27;45284;-45
2022/05/15 03:32:44;;;;;;;;;3.00;3.00;;;;;18.50;44.50;101225.66;5098567;27;47099;-47
2022/05/15 03:35:09;;;;;;;;;5.00;4.00;;;;;18.49;44.85;101227.50;5080516;27;45468;-44
2022/05/15 03:37:35;;;;;;;;;4.33;4.33;;;;;18.49;44.83;101221.28;5098255;27;45364;-46
2022/05/15 03:40:01;;;;;;;;;6.67;4.67;;;;;18.48;44.62;101225.84;5099346;27;45427;-44
2022/05/15 03:42:27;;;;;;;;;4.67;4.33;;;;;18.45;44.77;101228.91;5080347;27;47722;-43
2022/05/15 03:44:53;;;;;;;;;5.00;4.00;;;;;18.42;44.89;101216.66;5097045;27;45498;-43
2022/05/15 03:47:19;;;;;;;;;3.00;3.00;;;;;18.36;45.00;101216.56;5098766;27;45428;-42
2022/05/15 03:49:45;;;;;;;;;4.00;4.00;;;;;18.35;44.32;101214.91;5099103;27;45453;-46
2022/05/15 03:52:11;;;;;;;;;4.00;4.00;;;;;18.29;44.30;101212.97;5098296;27;46067;-46
2022/05/15 03:54:37;;;;;;;;;3.00;3.00;;;;;18.28;45.22;101214.78;5098235;27;45597;-42
2022/05/15 03:57:04;;;;;;;;;7.00;5.00;;;;;18.28;45.03;101208.56;5098778;27;45259;-42
2022/05/15 03:59:35;;;;;;;;;3.00;3.00;;;;;18.25;45.08;101206.28;5098687;27;45347;-45
2022/05/15 04:02:03;;;;;;;;;4.00;4.00;;;;;18.22;44.29;101209.34;5098328;27;46269;-41
2022/05/15 04:04:29;;;;;;;;;5.33;5.00;;;;;18.20;44.93;101204.09;5098098;27;45308;-41
2022/05/15 04:06:55;;;;;;;;;6.00;4.67;;;;;18.16;45.48;101203.69;5098434;27;45383;-42
2022/05/15 04:09:21;;;;;;;;;3.00;3.00;;;;;18.14;45.33;101207.56;5098727;27;45483;-41
2022/05/15 04:11:47;;;;;;;;;4.00;4.00;;;;;18.11;45.75;101206.06;5098195;27;46208;-41
2022/05/15 04:14:12;;;;;;;;;5.00;5.00;;;;;18.12;45.52;101206.91;5097506;27;45347;-41
2022/05/15 04:16:38;;;;;;;;;6.00;3.00;;;;;18.07;45.61;101204.75;5098504;27;45425;-43
2022/05/15 04:19:04;;;;;;;;;3.67;3.67;;;;;18.07;45.59;101214.69;5098750;27;45446;-41
2022/05/15 04:21:36;;;;;;;;;6.00;4.33;;;;;18.05;45.56;101212.19;5098099;27;45352;-41
2022/05/15 04:24:14;;;;;;;;;6.00;4.33;;;;;18.04;46.01;101218.59;5097019;27;45326;-42
2022/05/15 04:26:41;;;;;;;;;6.33;5.00;;;;;18.02;45.92;101220.63;5097953;27;45288;-43
2022/05/15 04:29:08;;;;;;;;;4.67;4.67;;;;;18.02;45.54;101212.56;5098042;27;45212;-41
2022/05/15 04:31:36;;;;;;;;;6.00;4.00;;;;;17.98;46.08;101203.19;5096418;27;45476;-41
2022/05/15 04:34:02;;;;;;;;;4.67;4.67;;;;;17.98;45.83;101195.09;5079767;27;45491;-42
2022/05/15 04:36:28;;;;;;;;;4.00;4.00;;;;;18.02;46.00;101198.25;5097920;27;45324;-42
2022/05/15 04:38:53;;;;;;;;;5.00;3.00;;;;;18.00;46.32;101194.94;5098068;27;45626;-42
2022/05/15 04:41:19;;;;;;;;;3.67;3.33;;;;;17.98;45.82;101194.28;5097681;27;47203;-42
2022/05/15 04:43:44;;;;;;;;;5.00;3.00;;;;;17.99;46.02;101195.94;5098034;27;45211;-42
2022/05/15 04:46:10;;;;;;;;;6.00;4.00;;;;;17.98;45.94;101195.09;5098176;27;45313;-42
2022/05/15 04:48:36;;;;;;;;;4.00;4.00;;;;;18.00;45.97;101200.31;5098500;27;45241;-42
2022/05/15 04:51:03;;;;;;;;;8.00;5.33;;;;;17.99;46.21;101194.06;5097652;27;46281;-43
2022/05/15 04:53:28;;;;;;;;;5.00;5.00;;;;;18.02;45.99;101192.88;5097704;27;45328;-43
2022/05/15 04:55:54;;;;;;;;;4.00;4.00;;;;;18.03;45.87;101198.06;5097729;27;45344;-43
2022/05/15 04:58:20;;;;;;;;;7.67;6.00;;;;;18.04;46.06;101198.94;5098077;27;45154;-46
2022/05/15 05:00:46;;;;;;;;;6.67;5.00;;;;;18.04;45.71;101204.31;5097766;27;47022;-49
2022/05/15 05:03:11;;;;;;;;;4.67;4.67;;;;;17.92;45.99;101190.47;5097511;27;45507;-48
2022/05/15 05:05:37;;;;;;;;;4.00;4.00;;;;;18.06;45.70;101219.25;5097896;27;45334;-42
2022/05/15 05:08:05;;;;;;;;;3.67;3.00;;;;;18.07;46.16;101220.91;5097766;27;45288;-42
2022/05/15 05:10:31;;;;;;;;;5.33;4.67;;;;;18.02;46.18;101198.25;5097635;27;45434;-48
2022/05/15 05:12:56;;;;;;;;;4.33;3.67;;;;;18.11;46.26;101207.91;5097624;27;45435;-46
2022/05/15 05:15:21;;;;;;;;;3.67;3.67;;;;;18.23;46.06;101219.91;5079369;27;45449;-45
2022/05/15 05:17:47;;;;;;;;;5.00;4.00;;;;;18.27;46.10;101215.81;5097892;27;45439;-42
2022/05/15 05:20:13;;;;;;;;;4.00;4.00;;;;;18.23;45.49;101209.13;5097104;27;45330;-42
2022/05/15 05:22:39;;;;;;;;;4.00;4.00;;;;;18.31;45.82;101214.44;5097212;27;45271;-44
2022/05/15 05:25:05;;;;;;;;;6.00;4.00;;;;;18.25;45.15;101206.28;5097604;27;45450;-45
2022/05/15 05:27:31;;;;;;;;;6.00;4.00;;;;;18.34;45.46;101222.16;5097749;27;45334;-43
2022/05/15 05:29:57;;;;;;;;;7.00;6.00;;;;;18.34;45.49;101215.94;5097209;27;46643;-43
2022/05/15 05:32:23;;;;;;;;;4.67;3.00;;;;;18.42;45.42;101223.91;5097349;27;45427;-43
2022/05/15 05:34:48;;;;;;;;;6.00;4.33;;;;;18.43;45.46;101233.66;5097444;27;45345;-42
2022/05/15 05:37:17;;;;;;;;;8.00;5.00;;;;;18.42;45.02;101224.75;5079066;27;45454;-42
2022/05/15 05:39:43;;;;;;;;;5.67;4.00;;;;;18.42;45.54;101230.13;5097321;27;45281;-41
2022/05/15 05:42:09;;;;;;;;;4.33;4.33;;;;;18.34;45.38;101214.06;5097238;27;45560;-42
2022/05/15 05:44:34;;;;;;;;;3.00;3.00;;;;;18.47;44.93;101229.56;5097479;27;45345;-42
2022/05/15 05:47:00;;;;;;;;;3.00;3.00;;;;;18.48;45.06;101220.47;5097319;27;45380;-41
2022/05/15 05:49:25;;;;;;;;;5.67;2.33;;;;;18.52;45.09;101235.22;5096928;27;46088;-41
2022/05/15 05:51:51;;;;;;;;;4.33;4.33;;;;;18.55;44.96;101226.78;5097186;27;45388;-43
2022/05/15 05:54:16;;;;;;;;;5.00;4.00;;;;;18.58;44.99;101228.25;5097043;27;45379;-42
2022/05/15 05:56:41;;;;;;;;;4.33;4.33;;;;;18.61;44.92;101217.94;5097369;27;45464;-43
2022/05/15 05:59:07;;;;;;;;;4.00;4.00;;;;;18.70;44.85;101226.78;5096729;27;45757;-43
2022/05/15 06:01:32;;;;;;;;;5.00;5.00;;;;;18.75;44.45;101223.50;5096983;27;45372;-43
2022/05/15 06:06:43;;;;;;;;;5.33;4.67;;;;;18.81;44.60;101217.38;5097226;27;45553;-47
2022/05/15 06:09:08;;;;;;;;;5.00;4.00;;;;;18.88;44.51;101204.84;5098032;27;46535;-42
2022/05/15 06:11:34;;;;;;;;;7.00;5.00;;;;;18.94;44.49;101212.16;5100327;27;45434;-47
2022/05/15 06:13:59;;;;;;;;;4.00;4.00;;;;;18.98;43.98;101207.22;5100604;27;45312;-44
2022/05/15 06:16:25;;;;;;;;;5.00;4.67;;;;;19.06;44.08;101215.19;5100592;27;45438;-47
2022/05/15 06:18:51;;;;;;;;;3.33;3.33;;;;;19.13;44.11;101202.59;5100218;27;45220;-48
2022/05/15 06:21:16;;;;;;;;;4.00;4.00;;;;;19.11;43.59;101193.88;5100175;27;45257;-44
2022/05/15 06:23:42;;;;;;;;;9.00;5.00;;;;;19.36;43.28;101210.50;5100041;27;45585;-44
2022/05/15 06:26:07;;;;;;;;;5.00;5.00;;;;;19.47;43.38;101212.69;5100407;27;45138;-46
2022/05/15 06:28:34;;;;;;;;;4.33;3.00;;;;;19.62;42.88;101202.69;5081609;27;47054;-42
2022/05/15 06:31:00;;;;;;;;;4.67;3.67;;;;;19.83;42.52;101209.06;5100066;27;45371;-42
2022/05/15 06:33:26;;;;;;;;;4.00;4.00;;;;;19.98;42.46;101211.69;5099836;27;45462;-47
2022/05/15 06:35:51;;;;;;;;;6.00;4.25;;;;;20.07;41.92;101213.19;5100165;27;45535;-41
2022/05/15 06:38:16;;;;;;;;;5.00;3.67;;;;;20.07;42.12;101219.44;5081269;27;46842;-42
2022/05/15 06:40:42;;;;;;;;;4.00;4.00;;;;;20.10;42.27;101215.47;5099973;27;45497;-42
2022/05/15 06:43:07;;;;;;;;;4.33;4.00;;;;;20.22;42.36;101226.56;5099779;27;45258;-42
2022/05/15 06:45:32;;;;;;;;;6.00;6.00;;;;;20.39;41.95;101227.91;5100044;27;45389;-40
2022/05/15 06:47:58;;;;;;;;;5.25;4.25;;;;;20.63;42.01;101230.16;5099745;27;46856;-46
2022/05/15 06:50:24;;;;;;;;;5.00;5.00;;;;;20.90;41.74;101216.78;5099833;27;46081;-43
2022/05/15 06:52:49;;;;;;;;;4.75;4.75;;;;;21.36;40.30;101225.03;5099932;27;45425;-42
2022/05/15 06:55:21;;;;;;;;;4.25;4.25;;;;;21.90;40.01;101223.97;5099885;27;45277;-41
2022/05/15 06:57:50;;;;;;;;;5.00;4.25;;;;;22.65;39.33;101210.06;5099731;27;45362;-43
2022/05/15 07:00:25;;;;;;;;;6.00;4.75;;;;;23.82;37.06;101216.06;5091194;27;45444;-45
2022/05/15 07:02:51;;;;;;;;;4.00;4.00;;;;;25.28;36.25;101206.16;5099641;27;45224;-41
2022/05/15 07:05:22;;;;;;;;;6.25;6.25;;;;;26.66;34.58;101198.50;5099532;27;45399;-43
2022/05/15 07:07:47;;;;;;;;;6.25;3.75;;;;;27.90;30.04;101179.41;5099197;27;46288;-52
2022/05/15 07:10:13;;;;;;;;;3.50;3.50;;;;;29.46;27.87;101185.31;5099360;27;45482;-42
2022/05/15 07:12:38;;;;;;;;;3.75;3.75;;;;;30.61;26.49;101179.16;5099482;27;45328;-41
2022/05/15 07:15:05;;;;;;;;;6.25;4.00;;;;;31.29;25.96;101169.69;5099643;27;45293;-41
2022/05/15 07:17:31;;;;;;;;;4.60;4.60;;;;;31.42;25.60;101157.31;5098961;27;45265;-41
2022/05/15 07:19:57;;;;;;;;;5.00;3.40;;;;;31.37;25.81;101168.31;5098967;27;45206;-41
2022/05/15 07:22:22;;;;;;;;;4.25;4.25;;;;;31.48;25.63;101172.72;5099205;27;45190;-49
2022/05/15 07:24:48;;;;;;;;;4.00;4.00;;;;;31.64;25.06;101167.19;5099326;27;45415;-40
2022/05/15 07:27:14;;;;;;;;;3.00;3.00;;;;;31.09;25.40;101153.16;5099072;27;45212;-44
2022/05/15 07:29:40;;;;;;;;;4.00;4.00;;;;;30.54;28.44;101163.72;5098559;27;45296;-42
2022/05/15 07:32:08;;;;;;;;;4.00;2.80;;;;;29.78;26.45;101160.59;5098912;27;45434;-40
2022/05/15 07:34:34;;;;;;;;;6.80;5.00;;;;;29.37;27.54;101132.03;5099239;27;45303;-42
2022/05/15 07:37:00;;;;;;;;;2.20;2.20;;;;;29.26;28.74;101153.06;5098639;27;47417;-41
2022/05/15 07:39:25;;;;;;;;;2.00;2.00;;;;;29.72;28.39;101137.00;5098951;27;45380;-41
2022/05/15 07:41:51;;;;;;;;;3.50;3.00;;;;;29.70;27.50;101147.38;5098944;27;45315;-43
2022/05/15 07:44:17;;;;;;;;;4.50;4.00;;;;;31.08;25.04;101146.00;5099041;27;45459;-42
2022/05/15 07:46:42;;;;;;;;;5.50;3.00;;;;;32.75;24.38;101146.72;5098983;27;45950;-41
2022/05/15 07:49:08;;;;;;;;;4.75;3.25;;;;;34.13;22.02;101141.91;5098545;27;45465;-47
2022/05/15 07:51:34;;;;;;;;;5.40;4.40;;;;;35.08;21.01;101142.81;5098541;27;45317;-41
2022/05/15 07:54:00;;;;;;;;;4.20;2.80;;;;;36.22;20.54;101138.47;5098721;27;46021;-40
2022/05/15 07:56:26;;;;;;;;;2.00;2.00;;;;;37.14;18.97;101128.06;5098423;27;46161;-40
2022/05/15 07:58:52;;;;;;;;;3.50;3.50;;;;;38.30;17.99;101127.91;5098661;27;45331;-40
2022/05/15 08:01:18;;;;;;;;;4.00;4.00;;;;;39.06;17.62;101128.28;5098739;27;45314;-40
2022/05/15 08:03:44;;;;;;;;;3.00;3.00;;;;;39.42;17.91;101116.78;5098344;27;45399;-41
2022/05/15 08:09:00;;;;;;;;;1.40;1.40;;;;;40.85;15.41;101107.72;5098208;27;45376;-42
2022/05/15 08:11:28;;;;;;;;;3.00;2.60;;;;;41.35;15.44;101110.31;5098438;27;45365;-47
2022/05/15 08:14:00;;;;;;;;;3.00;2.00;;;;;41.55;17.23;101108.66;5098463;27;45273;-41
2022/05/15 08:16:25;;;;;;;;;3.20;2.20;;;;;42.30;15.27;101097.06;5098257;27;46255;-41
2022/05/15 08:24:20;;;;;;;;;4.00;2.00;;;;;44.41;14.45;101082.94;5098459;27;45501;-42
2022/05/15 08:26:45;;;;;;;;;3.00;1.00;;;;;45.17;13.49;101080.41;5098170;27;45591;-43
2022/05/15 08:29:11;;;;;;;;;1.75;1.75;;;;;44.38;12.11;101077.25;5098230;27;45360;-43
2022/05/15 08:31:39;;;;;;;;;4.80;2.80;;;;;43.67;12.53;101056.81;5097449;27;45364;-44
2022/05/15 08:34:05;;;;;;;;;4.00;1.00;;;;;44.47;12.09;101080.66;5098520;27;45380;-45
2022/05/15 08:36:31;;;;;;;;;3.20;2.20;;;;;43.85;12.82;101076.88;5097372;27;45381;-42
2022/05/15 08:38:56;;;;;;;;;2.50;2.50;;;;;42.08;13.67;101076.00;5096560;27;45270;-45
2022/05/15 08:41:25;;;;;;;;;2.75;1.25;;;;;40.79;14.56;101073.66;5098131;27;45336;-44
2022/05/15 08:44:09;;;;;;;;;2.40;2.40;;;;;40.17;15.16;101074.50;5097980;27;45333;-44
2022/05/15 08:46:49;;;;;;;;;1.40;1.40;;;;;40.34;14.88;101071.56;5097936;27;46269;-53
2022/05/15 08:49:15;;;;;;;;;3.00;2.00;;;;;41.20;14.52;101066.31;5097861;27;45443;-43
2022/05/15 08:51:52;;;;;;;;;3.00;1.75;;;;;41.81;13.87;101062.81;5097865;27;45532;-42
2022/05/15 08:54:17;;;;;;;;;4.00;2.80;;;;;42.52;13.75;101066.94;5097972;27;45490;-52
2022/05/15 08:56:49;;;;;;;;;2.00;2.00;;;;;43.10;13.21;101068.19;5097722;27;45760;-52
2022/05/15 08:59:32;;;;;;;;;2.60;1.60;;;;;43.22;12.82;101063.69;5097618;27;45495;-49
2022/05/15 09:02:00;;;;;;;;;2.60;2.00;;;;;43.38;13.27;101066.50;5097941;27;45398;-43
2022/05/15 09:04:28;;;;;;;;;1.40;1.40;;;;;43.67;13.09;101060.44;5097677;27;45506;-52
2022/05/15 09:07:09;;;;;;;;;0.80;0.80;;;;;43.02;14.24;101066.34;5097606;27;45488;-42
2022/05/15 09:09:43;;;;;;;;;2.00;2.00;;;;;42.03;14.96;101065.09;5097386;27;45315;-49
2022/05/15 09:12:18;;;;;;;;;1.40;1.20;;;;;41.43;14.81;101049.19;5097558;27;45246;-43
2022/05/15 09:14:49;;;;;;;;;5.20;4.00;;;;;40.90;14.76;101063.69;5097960;27;45824;-44
2022/05/15 09:17:32;;;;;;;;;2.40;2.40;;;;;42.03;13.75;101055.91;5097384;27;46449;-48
2022/05/15 09:20:03;;;;;;;;;2.20;1.80;;;;;43.23;13.20;101054.91;5097377;27;45411;-41
2022/05/15 09:22:39;;;;;;;;;2.40;2.40;;;;;44.40;12.81;101047.66;5097202;27;45340;-46
2022/05/15 09:25:20;;;;;;;;;2.00;2.00;;;;;45.46;12.57;101050.03;5097550;27;45372;-45
2022/05/15 09:28:09;;;;;;;;;2.40;2.00;;;;;46.11;12.01;101048.97;5097334;27;46148;-43
2022/05/15 09:30:50;;;;;;;;;2.20;2.20;;;;;46.96;11.91;101054.81;5097400;27;45470;-55
2022/05/15 09:33:27;;;;;;;;;2.20;0.80;;;;;47.04;9.62;101041.63;5097311;27;45375;-41
2022/05/15 09:36:23;;;;;;;;;1.20;1.00;;;;;46.66;10.60;101036.00;5097753;27;45300;-41
2022/05/15 09:39:06;;;;;;;;;3.80;2.20;;;;;46.66;9.98;101032.38;5097438;27;46416;-40
2022/05/15 09:44:35;;;;;;;;;2.80;1.80;;;;;46.83;9.42;101036.56;5099388;27;45434;-43
2022/05/15 09:47:03;;;;;;;;;0.80;0.80;;;;;46.73;9.71;101038.06;5100966;27;45274;-43
2022/05/15 09:49:33;;;;;;;;;3.00;1.20;;;;;47.57;10.09;101039.22;5100620;27;46051;-45
2022/05/15 09:52:02;;;;;;;;;1.80;1.40;;;;;48.56;9.78;101024.00;5100644;27;45331;-43
2022/05/15 09:54:33;;;;;;;;;1.60;1.60;;;;;49.19;8.84;101024.50;5100724;27;45307;-43
2022/05/15 09:57:26;;;;;;;;;0.80;0.20;;;;;49.42;10.21;101024.06;5100596;27;45177;-48
2022/05/15 10:00:01;;;;;;;;;1.40;1.40;;;;;49.39;8.26;101028.53;5100378;27;45446;-42
2022/05/15 10:02:40;;;;;;;;;1.40;0.60;;;;;49.62;8.22;101010.31;5100341;27;45414;-45
2022/05/15 10:05:27;;;;;;;;;3.40;1.80;;;;;48.40;8.32;101010.25;5100608;27;45287;-43
2022/05/15 10:08:22;;;;;;;;;0.20;0.20;;;;;48.09;8.75;101008.94;5100673;27;45344;-44
2022/05/15 10:10:56;;;;;;;;;2.00;1.20;;;;;48.14;8.42;101002.91;5100070;27;45280;-42
2022/05/15 10:13:42;;;;;;;;;1.80;1.00;;;;;47.57;10.17;101008.22;5100221;27;45391;-42
2022/05/15 10:16:17;;;;;;;;;1.40;0.80;;;;;47.74;8.73;101010.34;5082209;27;45368;-44
2022/05/15 10:18:52;;;;;;;;;0.00;0.00;;;;;47.84;9.48;100994.72;5100498;27;45401;-43
2022/05/15 10:21:22;;;;;;;;;1.00;0.60;;;;;47.99;8.81;100990.72;5100052;27;47451;-47
2022/05/15 10:23:58;;;;;;;;;3.20;2.00;;;;;48.11;9.28;100986.78;5099978;27;45523;-43
2022/05/15 10:26:56;;;;;;;;;0.80;0.80;;;;;47.53;9.40;100973.56;5100320;27;45228;-44
2022/05/15 10:29:55;;;;;;;;;1.60;1.60;;;;;48.17;9.22;100985.19;5100505;27;45287;-48
2022/05/15 10:32:27;;;;;;;;;2.00;2.00;;;;;48.10;9.04;100979.53;5099927;27;47048;-45
2022/05/15 10:34:53;;;;;;;;;2.40;1.20;;;;;48.01;9.68;100981.06;5099870;27;45297;-47
2022/05/15 10:37:41;;;;;;;;;2.00;1.00;;;;;48.45;9.34;100978.00;5100123;27;45293;-44
2022/05/15 10:40:15;;;;;;;;;2.00;2.00;;;;;48.80;9.67;100967.97;5100015;27;45501;-44
2022/05/15 10:43:16;;;;;;;;;1.60;1.60;;;;;47.83;9.89;100975.34;5099703;27;45450;-42
2022/05/15 10:45:58;;;;;;;;;2.80;2.00;;;;;47.26;9.50;100972.97;5099673;27;45356;-43
2022/05/15 10:48:33;;;;;;;;;0.20;0.20;;;;;47.43;9.78;100977.13;5099785;27;45442;-44
2022/05/15 10:51:26;;;;;;;;;0.80;0.80;;;;;46.81;10.11;100966.56;5100063;27;45355;-44
2022/05/15 10:59:36;;;;;;;;;2.00;2.00;;;;;45.31;10.22;100959.09;5099737;27;45346;-44
2022/05/15 11:02:10;;;;;;;;;3.20;2.80;;;;;45.05;10.16;100949.47;5099798;27;45435;-44
2022/05/15 11:05:07;;;;;;;;;2.00;2.00;;;;;44.97;10.62;100958.13;5099034;27;46241;-43
2022/05/15 11:07:45;;;;;;;;;2.00;2.00;;;;;44.20;10.97;100953.47;5098336;27;45331;-46
2022/05/15 11:10:28;;;;;;;;;2.00;2.00;;;;;43.41;11.44;100948.94;5099170;27;45202;-48
2022/05/15 11:13:11;;;;;;;;;1.20;1.20;;;;;41.24;12.62;100944.44;5099583;27;45277;-44
2022/05/15 11:16:15;;;;;;;;;4.20;3.00;;;;;39.39;13.89;100946.84;5099052;27;45534;-44
2022/05/15 11:18:43;;;;;;;;;1.00;1.00;;;;;38.43;14.68;100944.38;5099437;27;45431;-48
2022/05/15 11:21:30;;;;;;;;;2.20;1.20;;;;;37.63;14.95;100926.38;5099330;27;45348;-44
2022/05/15 11:24:09;;;;;;;;;1.00;1.00;;;;;36.90;15.36;100931.50;5099484;27;45249;-43
2022/05/15 11:26:44;;;;;;;;;1.00;1.00;;;;;36.18;16.10;100924.19;5097844;27;46472;-45
2022/05/15 11:29:14;;;;;;;;;1.00;1.00;;;;;35.60;16.57;100934.09;5097837;27;45850;-47
2022/05/15 11:31:58;;;;;;;;;1.80;1.20;;;;;35.14;16.94;100925.91;5099251;27;45343;-44
2022/05/15 11:35:00;;;;;;;;;1.00;1.00;;;;;35.09;17.16;100920.50;5099334;27;45309;-45
2022/05/15 11:37:43;;;;;;;;;3.00;3.00;;;;;35.03;17.54;100924.50;5098517;27;45581;-45
2022/05/15 11:40:47;;;;;;;;;0.60;0.20;;;;;34.74;17.07;100925.56;5098744;27;45364;-48
2022/05/15 11:43:31;;;;;;;;;3.00;3.00;;;;;34.67;17.65;100912.13;5084202;27;45213;-46
2022/05/15 11:46:09;;;;;;;;;1.80;1.80;;;;;34.66;17.60;100921.53;5099192;27;45337;-45
2022/05/15 11:48:38;;;;;;;;;0.20;0.20;;;;;34.39;17.74;100910.41;5098515;27;46216;-48
2022/05/15 11:51:15;;;;;;;;;0.20;0.20;;;;;34.01;17.62;100918.75;5098741;27;45426;-42
2022/05/15 11:53:46;;;;;;;;;2.20;1.80;;;;;33.76;18.03;100900.63;5097727;27;45458;-44
2022/05/15 11:56:32;;;;;;;;;1.80;1.80;;;;;33.51;18.21;100901.78;5098913;27;45357;-43
2022/05/15 11:59:01;;;;;;;;;1.20;1.20;;;;;33.25;18.20;100902.09;5098623;27;45414;-45